Flugplatz Bückeburg (ETHB)

Hier findest Du alle Informationen zum Flugplatz Bückeburg (ETHB).

Informationen für Piloten zum Flugplatz Bückeburg

Hier findest Du alle relevanten Informationen, die Du als Pilot benötigst, um Bückeburg anzufliegen.

Flugplatz: Bückeburg ICAO-Code: ETHB
Frequenz Turm: 122,100 Mhz GAFOR Gebiet: 7
Frequenz Ground: 122,100 Mhz Mogas: nein
Platzrunde: - Landegebühr: -
Platzhöhe: - Sunrise: 07:01 Uhr UTC
Pisten: 08/26 - 1.830 m x , ASPH Sunset: 15:20 Uhr UTC

Flugwetter am Flugplatz Bückeburg

Die METAR Information stammen aus EDDV (45.39 km entfernt).

METAR Code:
2022/10/20 09:20
EDDV 200920Z AUTO 12009KT 080V160 CAVOK 10/05 Q1018 NOSIG

Temperatur: 9,1 °C Niederschlag: - Wind: 7,0 kt
Temperatur (min.): 7,9 °C Luftdruck: 1028 hPa Windrichtung: 240 °
Temperatur (max.): 10,7 °C Luftfeuchtigkeit: 83 % Bewölkung: 8/8

Flugschulen am Flugplatz Bückeburg

Am Flugplatz Bückeburg gibt es leider keine Flugschule.

Benachbarte Flugplätze und Flugschulen

Es gibt 12 weitere Flugplätze in einem Umkreis von 50 km um den Flugplatz Bückeburg.

Jetzt anmelden

Passwort vergessen

Umfrage Archiv

Sendet Ihr ADS-B und/oder FLARM?

Ja
84.5 %
Nein
15.5 %
Stimmen: 252 | Diskussion
Anzeige: Roland Aircraft
Statistik Alle Mitglieder

Aktuell sind 44 Besucher online, davon 3 Mitglieder und 41 Gäste.


Mitglieder online:
PeterM  Heli  monstertyp 

Anzeige: ULPower Aero Engines Anzeige: EasyVFR